createdAt,value
2023-07-25T00:01:09.477Z,96643.47
2023-07-25T00:03:36.479Z,96613.50
2023-07-25T00:06:07.869Z,96625.34
2023-07-25T00:08:34.597Z,96636.72
2023-07-25T00:11:01.823Z,96625.66
2023-07-25T00:13:29.062Z,96627.34
2023-07-25T00:15:56.414Z,96584.34
2023-07-25T00:18:23.158Z,96608.25
2023-07-25T00:20:49.917Z,96581.63
2023-07-25T00:23:17.269Z,96623.94
2023-07-25T00:25:43.896Z,96566.34
2023-07-25T00:28:10.515Z,96579.72
2023-07-25T00:30:37.258Z,96565.56
2023-07-25T00:33:03.995Z,96561.47
2023-07-25T00:35:30.747Z,96582.16
2023-07-25T00:37:57.519Z,96562.88
2023-07-25T00:40:24.188Z,96547.25
2023-07-25T00:42:56.977Z,96574.66
2023-07-25T00:45:25.367Z,96574.19
2023-07-25T00:47:53.656Z,96557.47
2023-07-25T00:50:20.481Z,96529.56
2023-07-25T00:52:48.237Z,96580.13
2023-07-25T00:55:14.999Z,96529.91
2023-07-25T00:57:42.349Z,96533.28
2023-07-25T01:00:09.448Z,96524.09
2023-07-25T01:02:36.635Z,96544.25
2023-07-25T01:05:03.479Z,96545.38
2023-07-25T01:07:31.449Z,96491.69
2023-07-25T01:09:58.235Z,96513.28
2023-07-25T01:12:25.697Z,96499.31
2023-07-25T01:14:52.633Z,96514.06
2023-07-25T01:17:22.486Z,96492.25
2023-07-25T01:19:50.963Z,96503.63
2023-07-25T01:22:19.332Z,96553.97
2023-07-25T01:24:48.034Z,96513.34
2023-07-25T01:27:16.327Z,96545.25
2023-07-25T01:29:43.470Z,96562.88
2023-07-25T01:32:10.918Z,96510.59
2023-07-25T01:34:38.401Z,96544.28
2023-07-25T01:37:07.052Z,96551.63
2023-07-25T01:39:33.835Z,96550.81
2023-07-25T01:42:00.491Z,96543.50
2023-07-25T01:44:27.709Z,96495.13
2023-07-25T01:46:56.316Z,96521.13
2023-07-25T01:49:23.216Z,96543.63
2023-07-25T01:51:50.740Z,96546.47
2023-07-25T01:54:20.296Z,96534.97
2023-07-25T01:56:50.357Z,96547.03
2023-07-25T01:59:18.058Z,96540.59
2023-07-25T02:01:44.781Z,96516.03
2023-07-25T02:04:11.537Z,96544.28
2023-07-25T02:06:39.065Z,96494.63
2023-07-25T02:09:05.660Z,96505.06
2023-07-25T02:11:33.367Z,96524.50
2023-07-25T02:14:00.242Z,96555.59
2023-07-25T02:16:26.928Z,96674.31
2023-07-25T02:18:53.664Z,96745.59
2023-07-25T02:21:21.087Z,96715.78
2023-07-25T02:23:47.890Z,96647.88
2023-07-25T02:28:46.135Z,96652.19
2023-07-25T02:31:12.841Z,96631.06
2023-07-25T02:33:42.220Z,96613.03
2023-07-25T02:36:09.051Z,96604.81
2023-07-25T02:38:35.646Z,96585.63
2023-07-25T02:41:02.316Z,96591.81
2023-07-25T02:43:29.178Z,96590.50
2023-07-25T02:45:55.834Z,96601.38
2023-07-25T02:48:22.549Z,96608.00
2023-07-25T02:50:49.986Z,96628.69
2023-07-25T02:53:16.771Z,96602.44
2023-07-25T02:55:43.424Z,96617.91
2023-07-25T02:58:10.270Z,96697.03
2023-07-25T03:00:36.941Z,96724.00
2023-07-25T03:03:03.734Z,96739.03
2023-07-25T03:05:31.045Z,96712.28
2023-07-25T03:07:58.290Z,96708.50
2023-07-25T03:10:25.089Z,96667.53
2023-07-25T03:12:53.353Z,96631.91
2023-07-25T03:15:21.438Z,96600.59
2023-07-25T03:17:48.328Z,96596.41
2023-07-25T03:20:15.092Z,96602.06
2023-07-25T03:22:42.024Z,96617.91
2023-07-25T03:25:09.724Z,96620.97
2023-07-25T03:27:37.438Z,96601.59
2023-07-25T03:30:05.391Z,96583.72
2023-07-25T03:32:32.067Z,96558.69
2023-07-25T03:34:59.345Z,96572.38
2023-07-25T03:37:26.049Z,96567.88
2023-07-25T03:39:53.116Z,96532.31
2023-07-25T03:42:19.784Z,96540.78
2023-07-25T03:44:47.009Z,96538.22
2023-07-25T03:47:13.639Z,96532.66
2023-07-25T03:49:40.690Z,96534.41
2023-07-25T03:52:08.247Z,96542.38
2023-07-25T03:54:34.879Z,96543.97
2023-07-25T03:57:03.544Z,96546.44
2023-07-25T03:59:30.307Z,96538.66
2023-07-25T04:01:57.753Z,96548.22
2023-07-25T04:04:24.659Z,96529.34
2023-07-25T04:06:51.402Z,96523.16
2023-07-25T04:09:18.178Z,96508.38
2023-07-25T04:11:44.916Z,96519.59
2023-07-25T04:14:11.585Z,96523.19
2023-07-25T04:16:38.376Z,96511.00
2023-07-25T04:19:05.250Z,96503.13
2023-07-25T04:21:32.042Z,96504.28
2023-07-25T04:23:58.853Z,96521.50
2023-07-25T04:26:25.478Z,96540.44
2023-07-25T04:28:52.121Z,96525.75
2023-07-25T04:31:18.686Z,96554.66
2023-07-25T04:33:45.645Z,96544.38
2023-07-25T04:36:12.322Z,96569.81
2023-07-25T04:38:42.346Z,96569.28
2023-07-25T04:41:09.715Z,96618.03
2023-07-25T04:43:36.370Z,96712.78
2023-07-25T04:46:03.625Z,96797.53
2023-07-25T04:48:30.471Z,96936.38
2023-07-25T04:50:57.121Z,97003.88
2023-07-25T04:53:24.502Z,96938.06
2023-07-25T04:55:51.166Z,96901.28
2023-07-25T04:58:17.817Z,96923.19
2023-07-25T05:00:45.007Z,96844.59
2023-07-25T05:03:11.936Z,96857.16
2023-07-25T05:05:38.709Z,96832.69
2023-07-25T05:08:05.520Z,96821.94
2023-07-25T05:10:32.941Z,96821.34
2023-07-25T05:12:59.550Z,96810.53
2023-07-25T05:15:26.375Z,96796.13
2023-07-25T05:17:53.849Z,96740.47
2023-07-25T05:20:20.522Z,96686.66
2023-07-25T05:22:47.257Z,96707.47
2023-07-25T05:25:13.914Z,96708.34
2023-07-25T05:27:40.562Z,96672.59
2023-07-25T05:30:07.842Z,96654.19
2023-07-25T05:32:37.534Z,96658.00
2023-07-25T05:35:04.773Z,96627.81
2023-07-25T05:37:38.951Z,96607.19
2023-07-25T05:40:07.045Z,96600.28
2023-07-25T05:42:34.041Z,96596.31
2023-07-25T05:45:01.522Z,96598.63
2023-07-25T05:47:29.098Z,96591.34
2023-07-25T05:49:56.365Z,96594.47
2023-07-25T05:52:23.241Z,96587.66
2023-07-25T05:54:50.371Z,96603.69
2023-07-25T05:57:17.116Z,96615.44
2023-07-25T05:59:45.067Z,96626.13
2023-07-25T06:02:12.328Z,96638.69
2023-07-25T06:04:39.855Z,96619.13
2023-07-25T06:07:07.495Z,96610.28
2023-07-25T06:09:34.244Z,96615.16
2023-07-25T06:12:00.886Z,96630.09
2023-07-25T06:14:27.615Z,96601.06
2023-07-25T06:16:54.297Z,96577.16
2023-07-25T06:19:21.161Z,96592.25
2023-07-25T06:21:48.650Z,96603.22
2023-07-25T06:24:15.429Z,96585.19
2023-07-25T06:26:42.158Z,96576.31
2023-07-25T06:29:08.987Z,96584.47
2023-07-25T06:31:36.668Z,96564.78
2023-07-25T06:34:03.466Z,96580.72
2023-07-25T06:36:30.303Z,96563.13
2023-07-25T06:38:56.946Z,96552.13
2023-07-25T06:41:23.737Z,96554.16
2023-07-25T06:43:51.416Z,96556.44
2023-07-25T06:46:18.139Z,96532.34
2023-07-25T06:48:44.800Z,96506.56
2023-07-25T06:51:12.410Z,96514.06
2023-07-25T06:53:42.353Z,96494.34
2023-07-25T06:56:09.105Z,96484.56
2023-07-25T06:58:35.994Z,96467.06
2023-07-25T07:01:02.618Z,96489.38
2023-07-25T07:03:29.302Z,96495.88
2023-07-25T07:05:57.287Z,96479.84
2023-07-25T07:08:24.244Z,96491.56
2023-07-25T07:10:55.536Z,96483.88
2023-07-25T07:13:23.780Z,96483.31
2023-07-25T07:15:50.887Z,96481.09
2023-07-25T07:18:17.752Z,96461.50
2023-07-25T07:20:51.910Z,96436.78
2023-07-25T07:23:18.652Z,96450.63
2023-07-25T07:25:46.122Z,96436.47
2023-07-25T07:28:14.753Z,96456.63
2023-07-25T07:30:41.615Z,96465.72
2023-07-25T07:33:08.498Z,96481.59
2023-07-25T07:35:35.345Z,96476.13
2023-07-25T07:38:02.105Z,96482.13
2023-07-25T07:40:29.975Z,96467.56
2023-07-25T07:42:56.951Z,96468.03
2023-07-25T07:45:25.141Z,96449.88
2023-07-25T07:47:52.308Z,96478.34
2023-07-25T07:50:20.421Z,96460.13
2023-07-25T07:52:47.479Z,96463.59
2023-07-25T07:55:14.921Z,96469.88
2023-07-25T07:57:44.552Z,96459.53
2023-07-25T08:00:14.681Z,96469.66
2023-07-25T08:02:42.564Z,96454.56
2023-07-25T08:05:10.280Z,96444.09
2023-07-25T08:07:37.081Z,96448.31
2023-07-25T08:10:04.462Z,96472.25
2023-07-25T08:12:32.107Z,96485.72
2023-07-25T08:14:58.882Z,96469.78
2023-07-25T08:17:25.845Z,96454.53
2023-07-25T08:19:52.748Z,96451.59
2023-07-25T08:22:19.369Z,96435.63
2023-07-25T08:24:46.771Z,96426.78
2023-07-25T08:27:13.563Z,96434.72
2023-07-25T08:29:41.925Z,96418.38
2023-07-25T08:32:12.487Z,96424.88
2023-07-25T08:34:40.731Z,96418.91
2023-07-25T08:37:07.941Z,96423.78
2023-07-25T08:39:35.261Z,96422.63
2023-07-25T08:42:06.513Z,96399.06
2023-07-25T08:44:36.474Z,96397.78
2023-07-25T08:47:13.749Z,96413.38
2023-07-25T08:49:42.589Z,96424.75
2023-07-25T08:52:10.884Z,96420.56
2023-07-25T08:54:38.684Z,96423.53
2023-07-25T08:57:06.096Z,96428.94
2023-07-25T08:59:33.244Z,96437.47
2023-07-25T09:02:02.393Z,96440.66
2023-07-25T09:04:29.484Z,96427.75
2023-07-25T09:06:56.409Z,96411.25
2023-07-25T09:09:24.300Z,96401.28
2023-07-25T09:11:51.576Z,96397.94
2023-07-25T09:14:19.140Z,96382.19
2023-07-25T09:16:45.853Z,96389.06
2023-07-25T09:19:13.042Z,96374.84
2023-07-25T09:21:50.624Z,96383.13
2023-07-25T09:24:17.356Z,96387.53
2023-07-25T09:26:52.446Z,96377.88
2023-07-25T09:29:21.887Z,96379.28
2023-07-25T10:18:44.497Z,96385.75
2023-07-25T10:29:50.796Z,96361.34
2023-07-25T10:32:23.400Z,96375.22
2023-07-25T11:08:42.914Z,96308.38
2023-07-25T11:11:14.187Z,96289.94
2023-07-25T11:13:46.168Z,96296.81
2023-07-25T11:16:15.242Z,96274.56
2023-07-25T11:18:52.554Z,96276.94
2023-07-25T11:21:19.831Z,96287.97
2023-07-25T11:23:46.597Z,96267.97
2023-07-25T11:26:14.512Z,96257.53
2023-07-25T11:28:42.419Z,96257.97
2023-07-25T11:31:09.797Z,96273.72
2023-07-25T11:33:43.080Z,96252.00
2023-07-25T11:36:09.891Z,96269.94
2023-07-25T11:38:37.286Z,96266.09
2023-07-25T11:41:06.524Z,96267.59
2023-07-25T11:43:33.644Z,96253.66
2023-07-25T11:46:04.608Z,96256.09
2023-07-25T11:48:32.705Z,96259.91
2023-07-25T11:51:00.140Z,96244.94
2023-07-25T11:53:29.194Z,96219.31
2023-07-25T11:55:57.125Z,96241.69
2023-07-25T11:58:24.208Z,96261.19
2023-07-25T12:00:55.843Z,96241.50
2023-07-25T12:03:24.906Z,96247.16
2023-07-25T12:05:59.092Z,96251.53
2023-07-25T12:08:42.586Z,96244.03
2023-07-25T12:11:11.799Z,96243.25
2023-07-25T12:13:56.958Z,96228.19
2023-07-25T12:16:33.182Z,96223.19
2023-07-25T12:19:03.039Z,96180.19
2023-07-25T12:21:32.058Z,96181.00
2023-07-25T12:24:05.728Z,96178.06
2023-07-25T12:26:55.911Z,96199.41
2023-07-25T12:29:31.487Z,96193.66
2023-07-25T12:32:28.202Z,96181.19
2023-07-25T12:35:08.080Z,96166.53
2023-07-25T12:37:35.107Z,96142.81
2023-07-25T12:40:05.449Z,96167.22
2023-07-25T12:42:32.205Z,96156.13
2023-07-25T12:45:02.447Z,96180.03
2023-07-25T12:47:29.129Z,96147.28
2023-07-25T12:49:55.997Z,96173.19
2023-07-25T12:52:22.749Z,96195.03
2023-07-25T12:54:49.420Z,96189.13
2023-07-25T12:57:16.174Z,96179.75
2023-07-25T12:59:43.469Z,96156.66
2023-07-25T13:02:13.336Z,96157.72
2023-07-25T13:04:40.128Z,96157.88
2023-07-25T13:07:07.738Z,96149.00
2023-07-25T13:09:37.531Z,96166.63
2023-07-25T13:12:04.775Z,96163.19
2023-07-25T13:14:31.616Z,96166.94
2023-07-25T13:16:58.629Z,96165.06
2023-07-25T13:19:25.393Z,96165.84
2023-07-25T13:21:52.958Z,96158.50
2023-07-25T13:24:19.740Z,96181.47
2023-07-25T13:26:47.032Z,96186.59
2023-07-25T13:29:15.317Z,96183.91
2023-07-25T13:31:42.053Z,96172.00
2023-07-25T13:34:09.419Z,96179.31
2023-07-25T13:36:36.221Z,96166.81
2023-07-25T13:39:02.935Z,96161.63
2023-07-25T13:41:30.054Z,96163.50
2023-07-25T13:43:57.305Z,96165.03
2023-07-25T13:46:24.165Z,96150.34
2023-07-25T13:48:52.470Z,96157.97
2023-07-25T13:51:19.204Z,96163.84
2023-07-25T13:53:45.890Z,96152.38
2023-07-25T13:56:13.337Z,96155.75
2023-07-25T13:58:42.650Z,96146.53
2023-07-25T14:01:09.366Z,96142.53
2023-07-25T14:03:36.124Z,96147.34
2023-07-25T14:06:02.833Z,96151.78
2023-07-25T14:08:29.593Z,96135.31
2023-07-25T14:10:56.388Z,96133.53
2023-07-25T14:13:23.855Z,96131.91
2023-07-25T14:15:52.107Z,96130.72
2023-07-25T14:18:19.550Z,96125.16
2023-07-25T14:20:47.373Z,96097.25
2023-07-25T14:23:14.153Z,96087.47
2023-07-25T14:25:41.117Z,96088.28
2023-07-25T14:28:07.924Z,96077.50
2023-07-25T14:30:35.693Z,96087.78
2023-07-25T14:33:02.726Z,96093.88
2023-07-25T14:35:30.159Z,96074.25
2023-07-25T14:37:58.617Z,96076.44
2023-07-25T14:40:26.689Z,96073.78
2023-07-25T14:42:54.157Z,96038.53
2023-07-25T14:45:21.088Z,96031.88
2023-07-25T14:47:47.943Z,95988.66
2023-07-25T14:50:14.848Z,96006.63
2023-07-25T14:52:42.021Z,96025.00
2023-07-25T14:55:09.633Z,96045.13
2023-07-25T14:57:36.372Z,96018.00
2023-07-25T15:00:03.169Z,96033.72
2023-07-25T15:02:30.058Z,96055.22
2023-07-25T15:04:56.858Z,96049.09
2023-07-25T15:07:23.441Z,96048.91
2023-07-25T15:09:50.056Z,96042.13
2023-07-25T15:12:16.995Z,96024.88
2023-07-25T15:14:43.953Z,96039.97
2023-07-25T15:17:19.565Z,96057.28
2023-07-25T15:19:46.273Z,96051.00
2023-07-25T15:22:13.025Z,96076.19
2023-07-25T15:24:39.882Z,96091.66
2023-07-25T15:27:07.255Z,96091.13
2023-07-25T15:29:33.940Z,96103.09
2023-07-25T15:32:03.200Z,96112.13
2023-07-25T15:34:29.822Z,96117.84
2023-07-25T15:36:57.219Z,96102.00
2023-07-25T15:39:24.116Z,96126.81
2023-07-25T15:41:50.733Z,96134.25
2023-07-25T15:44:17.363Z,96116.53
2023-07-25T15:46:44.548Z,96118.38
2023-07-25T15:49:11.432Z,96127.53
2023-07-25T15:51:38.088Z,96123.44
2023-07-25T15:54:05.347Z,96136.09
2023-07-25T15:56:32.040Z,96123.13
2023-07-25T15:58:58.708Z,96122.50
2023-07-25T16:01:26.724Z,96131.22
2023-07-25T16:03:53.786Z,96142.94
2023-07-25T16:06:20.612Z,96150.50
2023-07-25T16:08:47.291Z,96150.78
2023-07-25T16:11:16.897Z,96135.09
2023-07-25T16:13:43.544Z,96135.53
2023-07-25T16:16:11.131Z,96109.03
2023-07-25T16:18:42.515Z,96115.38
2023-07-25T16:21:10.033Z,96108.34
2023-07-25T16:23:36.741Z,96120.94
2023-07-25T16:26:04.625Z,96161.09
2023-07-25T16:28:31.562Z,96140.97
2023-07-25T16:31:16.898Z,96144.56
2023-07-25T16:33:45.024Z,96158.13
2023-07-25T16:36:11.916Z,96197.53
2023-07-25T16:38:38.813Z,96207.88
2023-07-25T16:41:05.467Z,96174.31
2023-07-25T16:43:33.117Z,96166.38
2023-07-25T16:45:59.766Z,96159.13
2023-07-25T16:48:27.284Z,96141.97
2023-07-25T16:50:54.619Z,96141.44
2023-07-25T16:53:21.226Z,96141.34
2023-07-25T16:55:47.796Z,96140.16
2023-07-25T16:58:14.602Z,96164.00
2023-07-25T17:00:41.257Z,96178.25
2023-07-25T17:03:08.916Z,96191.81
2023-07-25T17:05:36.321Z,96187.09
2023-07-25T17:08:04.389Z,96179.63
2023-07-25T17:10:31.639Z,96157.84
2023-07-25T17:12:58.902Z,96143.72
2023-07-25T17:15:25.658Z,96141.47
2023-07-25T17:17:52.365Z,96135.72
2023-07-25T17:20:22.485Z,96144.50
2023-07-25T17:22:49.208Z,96160.00
2023-07-25T17:25:16.122Z,96164.78
2023-07-25T17:27:43.696Z,96173.50
2023-07-25T17:30:14.292Z,96172.78
2023-07-25T17:32:41.068Z,96164.16
2023-07-25T17:35:10.929Z,96197.72
2023-07-25T17:37:41.583Z,96206.00
2023-07-25T17:40:11.973Z,96164.25
2023-07-25T17:42:38.809Z,96201.31
2023-07-25T17:45:05.871Z,96218.66
2023-07-25T17:47:33.619Z,96211.59
2023-07-25T17:50:00.691Z,96198.56
2023-07-25T17:52:27.700Z,96213.56
2023-07-25T17:54:55.277Z,96153.22
2023-07-25T17:57:22.077Z,96180.84
2023-07-25T17:59:48.723Z,96200.97
2023-07-25T18:02:16.053Z,96179.25
2023-07-25T18:04:44.340Z,96199.81
2023-07-25T18:07:11.463Z,96212.06
2023-07-25T18:09:38.257Z,96188.00
2023-07-25T18:12:05.774Z,96191.56
2023-07-25T18:14:32.424Z,96191.19
2023-07-25T18:16:59.893Z,96199.50
2023-07-25T18:19:26.594Z,96204.59
2023-07-25T18:21:53.339Z,96221.19
2023-07-25T18:24:20.384Z,96202.63
2023-07-25T18:26:47.437Z,96224.75
2023-07-25T18:29:14.055Z,96182.47
2023-07-25T18:31:40.814Z,96226.28
2023-07-25T18:34:07.602Z,96236.53
2023-07-25T18:36:34.204Z,96242.06
2023-07-25T18:39:02.053Z,96212.44
2023-07-25T18:41:28.905Z,96225.88
2023-07-25T18:43:55.540Z,96220.69
2023-07-25T18:46:22.475Z,96228.59
2023-07-25T18:48:49.867Z,96225.03
2023-07-25T18:51:16.777Z,96218.28
2023-07-25T18:53:44.287Z,96217.06
2023-07-25T18:56:10.922Z,96209.59
2023-07-25T18:58:42.740Z,96202.44
2023-07-25T19:01:09.530Z,96183.06
2023-07-25T19:03:36.272Z,96196.09
2023-07-25T19:06:03.034Z,96211.88
2023-07-25T19:08:30.582Z,96200.03
2023-07-25T19:10:57.417Z,96174.78
2023-07-25T19:13:24.094Z,96168.44
2023-07-25T19:15:50.998Z,96168.44
2023-07-25T19:18:18.737Z,96155.03
2023-07-25T19:20:45.545Z,96164.88
2023-07-25T19:23:25.024Z,96173.56
2023-07-25T19:26:01.188Z,96157.38
2023-07-25T19:28:29.045Z,96153.78
2023-07-25T19:30:57.561Z,96138.03
2023-07-25T19:33:25.715Z,96143.97
2023-07-25T19:35:55.812Z,96130.53
2023-07-25T19:38:27.800Z,96110.41
2023-07-25T19:40:55.074Z,96108.81
2023-07-25T19:43:22.312Z,96116.72
2023-07-25T19:45:49.054Z,96116.75
2023-07-25T19:48:17.743Z,96099.31
2023-07-25T19:50:46.946Z,96104.81
2023-07-25T19:53:14.871Z,96113.44
2023-07-25T19:55:42.098Z,96100.00
2023-07-25T19:58:08.767Z,96096.06
2023-07-25T20:00:37.292Z,96102.81
2023-07-25T20:03:04.280Z,96092.16
2023-07-25T20:05:31.300Z,96092.97
2023-07-25T20:07:58.027Z,96090.22
2023-07-25T20:10:24.707Z,96088.22
2023-07-25T20:12:52.025Z,96087.41
2023-07-25T20:15:19.882Z,96078.66
2023-07-25T20:17:48.243Z,96092.84
2023-07-25T20:20:16.000Z,96094.34
2023-07-25T20:22:42.707Z,96071.09
2023-07-25T20:25:11.245Z,96087.66
2023-07-25T20:27:38.824Z,96089.59
2023-07-25T20:30:06.470Z,96073.38
2023-07-25T20:32:34.133Z,96087.19
2023-07-25T20:35:00.914Z,96072.16
2023-07-25T20:37:28.963Z,96076.56
2023-07-25T20:39:56.476Z,96065.50
2023-07-25T20:42:23.291Z,96081.22
2023-07-25T20:44:50.065Z,96067.44
2023-07-25T20:47:17.715Z,96070.56
2023-07-25T20:49:44.764Z,96065.78
2023-07-25T20:52:11.609Z,96063.44
2023-07-25T20:54:38.358Z,96046.84
2023-07-25T20:57:05.666Z,96059.53
2023-07-25T20:59:32.305Z,96068.56
2023-07-25T21:01:59.067Z,96074.88
2023-07-25T21:04:28.591Z,96081.81
2023-07-25T21:06:55.707Z,96072.75
2023-07-25T21:09:22.994Z,96058.13
2023-07-25T21:11:49.658Z,96072.63
2023-07-25T21:14:16.329Z,96071.81
2023-07-25T21:16:43.599Z,96052.06
2023-07-25T21:19:10.969Z,96056.44
2023-07-25T21:21:37.702Z,96065.88
2023-07-25T21:24:04.719Z,96060.75
2023-07-25T21:26:32.175Z,96063.91
2023-07-25T21:28:59.190Z,96055.66
2023-07-25T21:31:26.869Z,96055.75
2023-07-25T21:33:53.726Z,96057.66
2023-07-25T21:36:20.750Z,96067.13
2023-07-25T21:38:47.474Z,96063.97
2023-07-25T21:41:15.696Z,96078.19
2023-07-25T21:43:43.387Z,96064.78
2023-07-25T21:46:10.590Z,96069.13
2023-07-25T21:48:41.185Z,96060.84
2023-07-25T21:51:09.416Z,96041.09
2023-07-25T21:53:36.061Z,96049.75
2023-07-25T21:56:03.006Z,96054.81
2023-07-25T21:58:29.747Z,96030.84
2023-07-25T22:01:00.446Z,96052.53
2023-07-25T22:03:31.220Z,96050.50
2023-07-25T22:06:01.052Z,96062.34
2023-07-25T22:08:28.149Z,96051.34
2023-07-25T22:10:56.215Z,96056.81
2023-07-25T22:13:23.993Z,96057.19
2023-07-25T22:15:50.694Z,96048.88
2023-07-25T22:18:17.555Z,96041.31
2023-07-25T22:20:51.865Z,96069.28
2023-07-25T22:23:20.229Z,96064.94
2023-07-25T22:25:47.060Z,96050.38
2023-07-25T22:28:13.888Z,96044.88
2023-07-25T22:30:41.346Z,96056.31
2023-07-25T22:33:08.713Z,96036.31
2023-07-25T22:35:35.698Z,96024.00
2023-07-25T22:38:04.400Z,96026.75
2023-07-25T22:40:31.879Z,96026.00
2023-07-25T22:42:58.933Z,96012.53
2023-07-25T22:45:29.479Z,96018.88
2023-07-25T22:47:56.555Z,95996.81
2023-07-25T22:50:23.706Z,96016.94
2023-07-25T22:52:50.726Z,96012.56
2023-07-25T22:55:19.901Z,95998.38
2023-07-25T22:57:46.659Z,95995.16
2023-07-25T23:00:14.091Z,96016.47
2023-07-25T23:02:41.445Z,96013.69
2023-07-25T23:05:08.762Z,96016.03
2023-07-25T23:07:35.645Z,96008.53
2023-07-25T23:10:03.058Z,95999.84
2023-07-25T23:12:29.831Z,95981.63
2023-07-25T23:14:56.685Z,96006.03
2023-07-25T23:17:24.312Z,95993.38
2023-07-25T23:19:51.198Z,95993.00
2023-07-25T23:22:18.034Z,95970.91
2023-07-25T23:24:45.743Z,95982.75
2023-07-25T23:27:12.470Z,95972.91
2023-07-25T23:29:39.177Z,95951.97
2023-07-25T23:32:06.410Z,95948.06
2023-07-25T23:34:45.234Z,95956.38
2023-07-25T23:37:12.022Z,95950.84
2023-07-25T23:39:39.197Z,95960.63
2023-07-25T23:42:06.256Z,95946.41
2023-07-25T23:44:33.842Z,95949.56
2023-07-25T23:47:00.632Z,95933.03
2023-07-25T23:49:28.573Z,95935.28
2023-07-25T23:51:55.776Z,95931.25
2023-07-25T23:54:22.518Z,95950.13
2023-07-25T23:56:49.778Z,95960.78
2023-07-25T23:59:16.567Z,95933.22
